sensor_id;sensor_type;location;lat;lon;timestamp;P1;durP1;ratioP1;P2;durP2;ratioP2
54557;SDS011;40452;50.080;20.040;2023-07-13T02:37:50;6.55;;;4.28;;
54557;SDS011;40452;50.080;20.040;2023-07-13T02:40:16;6.45;;;4.00;;
54557;SDS011;40452;50.080;20.040;2023-07-13T02:42:42;7.32;;;4.50;;
54557;SDS011;40452;50.080;20.040;2023-07-13T02:45:08;6.05;;;4.20;;
54557;SDS011;40452;50.080;20.040;2023-07-13T02:47:34;6.28;;;3.85;;
54557;SDS011;40452;50.080;20.040;2023-07-13T02:50:00;6.07;;;3.83;;
54557;SDS011;40452;50.080;20.040;2023-07-13T02:52:26;6.95;;;4.05;;
54557;SDS011;40452;50.080;20.040;2023-07-13T02:54:52;7.75;;;4.47;;
54557;SDS011;40452;50.080;20.040;2023-07-13T02:57:17;9.38;;;4.22;;
54557;SDS011;40452;50.080;20.040;2023-07-13T02:59:43;5.22;;;4.10;;
54557;SDS011;40452;50.080;20.040;2023-07-13T03:02:09;6.65;;;3.97;;
54557;SDS011;40452;50.080;20.040;2023-07-13T03:04:35;5.88;;;3.78;;
54557;SDS011;40452;50.080;20.040;2023-07-13T03:07:03;7.53;;;4.38;;
54557;SDS011;40452;50.080;20.040;2023-07-13T03:09:29;6.88;;;4.05;;
54557;SDS011;40452;50.080;20.040;2023-07-13T03:11:56;5.75;;;4.07;;
54557;SDS011;40452;50.080;20.040;2023-07-13T03:14:22;4.88;;;3.53;;
54557;SDS011;40452;50.080;20.040;2023-07-13T03:16:48;7.55;;;3.92;;
54557;SDS011;40452;50.080;20.040;2023-07-13T03:19:14;6.68;;;4.20;;
54557;SDS011;40452;50.080;20.040;2023-07-13T03:21:39;5.38;;;3.90;;
54557;SDS011;40452;50.080;20.040;2023-07-13T03:24:05;9.57;;;4.32;;
54557;SDS011;40452;50.080;20.040;2023-07-13T03:26:31;5.90;;;3.88;;
54557;SDS011;40452;50.080;20.040;2023-07-13T03:28:56;6.32;;;4.10;;
54557;SDS011;40452;50.080;20.040;2023-07-13T03:31:24;5.85;;;4.10;;
54557;SDS011;40452;50.080;20.040;2023-07-13T03:33:51;6.97;;;4.38;;
54557;SDS011;40452;50.080;20.040;2023-07-13T03:36:19;9.02;;;4.18;;
54557;SDS011;40452;50.080;20.040;2023-07-13T03:38:51;6.53;;;4.30;;
54557;SDS011;40452;50.080;20.040;2023-07-13T03:41:19;6.90;;;4.65;;
54557;SDS011;40452;50.080;20.040;2023-07-13T03:43:45;5.72;;;4.10;;
54557;SDS011;40452;50.080;20.040;2023-07-13T03:46:13;5.88;;;4.00;;
54557;SDS011;40452;50.080;20.040;2023-07-13T03:48:40;4.82;;;3.88;;
54557;SDS011;40452;50.080;20.040;2023-07-13T03:51:08;5.72;;;4.10;;
54557;SDS011;40452;50.080;20.040;2023-07-13T03:56:06;9.88;;;4.88;;
54557;SDS011;40452;50.080;20.040;2023-07-13T03:58:33;6.75;;;5.22;;
54557;SDS011;40452;50.080;20.040;2023-07-13T04:01:01;9.52;;;5.30;;
54557;SDS011;40452;50.080;20.040;2023-07-13T04:03:30;7.45;;;5.45;;
54557;SDS011;40452;50.080;20.040;2023-07-13T04:05:58;9.57;;;6.35;;
54557;SDS011;40452;50.080;20.040;2023-07-13T04:08:32;8.15;;;6.07;;
54557;SDS011;40452;50.080;20.040;2023-07-13T04:10:59;10.38;;;5.50;;
54557;SDS011;40452;50.080;20.040;2023-07-13T04:13:26;10.73;;;6.05;;
54557;SDS011;40452;50.080;20.040;2023-07-13T04:15:52;9.50;;;5.90;;
54557;SDS011;40452;50.080;20.040;2023-07-13T04:18:19;7.72;;;5.85;;
54557;SDS011;40452;50.080;20.040;2023-07-13T04:20:45;9.90;;;5.63;;
54557;SDS011;40452;50.080;20.040;2023-07-13T04:23:11;10.55;;;6.10;;
54557;SDS011;40452;50.080;20.040;2023-07-13T04:25:37;9.35;;;5.82;;
54557;SDS011;40452;50.080;20.040;2023-07-13T04:28:03;6.78;;;5.55;;
54557;SDS011;40452;50.080;20.040;2023-07-13T04:30:29;9.23;;;5.70;;
54557;SDS011;40452;50.080;20.040;2023-07-13T04:32:55;8.05;;;6.30;;
54557;SDS011;40452;50.080;20.040;2023-07-13T04:35:21;8.52;;;5.88;;
54557;SDS011;40452;50.080;20.040;2023-07-13T04:37:48;7.22;;;4.95;;
54557;SDS011;40452;50.080;20.040;2023-07-13T04:40:15;6.80;;;5.03;;
54557;SDS011;40452;50.080;20.040;2023-07-13T04:42:45;7.90;;;5.43;;
54557;SDS011;40452;50.080;20.040;2023-07-13T04:45:12;8.40;;;5.10;;
54557;SDS011;40452;50.080;20.040;2023-07-13T04:47:38;7.18;;;5.07;;
54557;SDS011;40452;50.080;20.040;2023-07-13T04:50:04;5.95;;;4.70;;
54557;SDS011;40452;50.080;20.040;2023-07-13T04:52:31;11.88;;;5.63;;
54557;SDS011;40452;50.080;20.040;2023-07-13T04:54:58;9.68;;;5.00;;
54557;SDS011;40452;50.080;20.040;2023-07-13T04:57:24;6.90;;;5.00;;
54557;SDS011;40452;50.080;20.040;2023-07-13T04:59:50;10.80;;;4.93;;
54557;SDS011;40452;50.080;20.040;2023-07-13T05:02:15;7.22;;;5.22;;
54557;SDS011;40452;50.080;20.040;2023-07-13T05:04:41;7.45;;;4.35;;
54557;SDS011;40452;50.080;20.040;2023-07-13T05:07:07;7.93;;;4.28;;
54557;SDS011;40452;50.080;20.040;2023-07-13T05:09:32;5.45;;;4.30;;
54557;SDS011;40452;50.080;20.040;2023-07-13T05:11:58;6.57;;;4.95;;
54557;SDS011;40452;50.080;20.040;2023-07-13T05:14:23;6.97;;;4.93;;
54557;SDS011;40452;50.080;20.040;2023-07-13T05:16:49;8.05;;;5.05;;
54557;SDS011;40452;50.080;20.040;2023-07-13T05:19:14;8.02;;;5.18;;
54557;SDS011;40452;50.080;20.040;2023-07-13T05:21:40;6.88;;;4.75;;
54557;SDS011;40452;50.080;20.040;2023-07-13T05:24:06;8.27;;;4.25;;
54557;SDS011;40452;50.080;20.040;2023-07-13T05:26:32;8.65;;;4.90;;
54557;SDS011;40452;50.080;20.040;2023-07-13T05:28:57;5.97;;;4.00;;
54557;SDS011;40452;50.080;20.040;2023-07-13T05:31:23;5.97;;;3.97;;
54557;SDS011;40452;50.080;20.040;2023-07-13T05:33:49;10.27;;;3.97;;
54557;SDS011;40452;50.080;20.040;2023-07-13T05:36:14;7.72;;;5.05;;
54557;SDS011;40452;50.080;20.040;2023-07-13T05:38:40;6.75;;;4.50;;
54557;SDS011;40452;50.080;20.040;2023-07-13T05:41:05;9.68;;;4.93;;
54557;SDS011;40452;50.080;20.040;2023-07-13T05:43:31;10.27;;;5.20;;
54557;SDS011;40452;50.080;20.040;2023-07-13T05:45:57;10.75;;;5.25;;
54557;SDS011;40452;50.080;20.040;2023-07-13T05:48:22;13.63;;;7.85;;
54557;SDS011;40452;50.080;20.040;2023-07-13T05:50:51;10.27;;;5.60;;
54557;SDS011;40452;50.080;20.040;2023-07-13T05:53:17;11.07;;;5.65;;
54557;SDS011;40452;50.080;20.040;2023-07-13T05:55:43;11.15;;;5.57;;
54557;SDS011;40452;50.080;20.040;2023-07-13T05:58:09;11.70;;;5.50;;
54557;SDS011;40452;50.080;20.040;2023-07-13T06:00:36;6.60;;;4.68;;
54557;SDS011;40452;50.080;20.040;2023-07-13T06:03:01;11.63;;;4.55;;
54557;SDS011;40452;50.080;20.040;2023-07-13T06:05:27;8.48;;;4.43;;
54557;SDS011;40452;50.080;20.040;2023-07-13T06:07:53;10.27;;;4.88;;
54557;SDS011;40452;50.080;20.040;2023-07-13T06:10:19;6.40;;;4.13;;
54557;SDS011;40452;50.080;20.040;2023-07-13T06:12:45;9.77;;;4.30;;
54557;SDS011;40452;50.080;20.040;2023-07-13T06:15:11;5.88;;;4.32;;
54557;SDS011;40452;50.080;20.040;2023-07-13T06:17:36;6.00;;;3.88;;
54557;SDS011;40452;50.080;20.040;2023-07-13T06:20:02;6.70;;;4.25;;
54557;SDS011;40452;50.080;20.040;2023-07-13T06:22:28;5.43;;;3.88;;
54557;SDS011;40452;50.080;20.040;2023-07-13T06:24:53;8.90;;;4.90;;
54557;SDS011;40452;50.080;20.040;2023-07-13T06:27:19;7.22;;;5.07;;
54557;SDS011;40452;50.080;20.040;2023-07-13T06:29:44;6.78;;;4.13;;
54557;SDS011;40452;50.080;20.040;2023-07-13T06:32:10;6.65;;;4.00;;
54557;SDS011;40452;50.080;20.040;2023-07-13T06:34:36;8.48;;;4.13;;
54557;SDS011;40452;50.080;20.040;2023-07-13T06:37:04;8.93;;;4.15;;
54557;SDS011;40452;50.080;20.040;2023-07-13T06:39:30;9.30;;;5.13;;
54557;SDS011;40452;50.080;20.040;2023-07-13T06:41:56;9.23;;;5.38;;
54557;SDS011;40452;50.080;20.040;2023-07-13T06:44:21;10.00;;;4.93;;
54557;SDS011;40452;50.080;20.040;2023-07-13T06:46:47;9.38;;;5.80;;
54557;SDS011;40452;50.080;20.040;2023-07-13T06:49:13;9.02;;;4.60;;
54557;SDS011;40452;50.080;20.040;2023-07-13T06:51:38;7.60;;;4.43;;
54557;SDS011;40452;50.080;20.040;2023-07-13T06:54:04;7.22;;;4.45;;
54557;SDS011;40452;50.080;20.040;2023-07-13T06:56:29;6.75;;;4.10;;
54557;SDS011;40452;50.080;20.040;2023-07-13T06:58:55;5.97;;;4.25;;
54557;SDS011;40452;50.080;20.040;2023-07-13T07:01:20;8.52;;;4.40;;
54557;SDS011;40452;50.080;20.040;2023-07-13T07:03:46;7.78;;;4.70;;
54557;SDS011;40452;50.080;20.040;2023-07-13T07:08:42;11.07;;;4.40;;
54557;SDS011;40452;50.080;20.040;2023-07-13T07:11:08;6.47;;;4.43;;
54557;SDS011;40452;50.080;20.040;2023-07-13T07:13:36;5.65;;;3.63;;
54557;SDS011;40452;50.080;20.040;2023-07-13T07:16:02;6.65;;;4.35;;
54557;SDS011;40452;50.080;20.040;2023-07-13T07:18:27;8.73;;;4.03;;
54557;SDS011;40452;50.080;20.040;2023-07-13T07:20:53;7.15;;;3.80;;
54557;SDS011;40452;50.080;20.040;2023-07-13T07:23:18;7.68;;;4.07;;
54557;SDS011;40452;50.080;20.040;2023-07-13T07:25:44;4.47;;;3.67;;
54557;SDS011;40452;50.080;20.040;2023-07-13T07:28:10;9.48;;;4.20;;
54557;SDS011;40452;50.080;20.040;2023-07-13T07:30:36;6.45;;;3.47;;
54557;SDS011;40452;50.080;20.040;2023-07-13T07:33:03;5.63;;;3.65;;
54557;SDS011;40452;50.080;20.040;2023-07-13T14:58:12;4.97;;;1.95;;
54557;SDS011;40452;50.080;20.040;2023-07-13T15:00:38;4.50;;;3.00;;
54557;SDS011;40452;50.080;20.040;2023-07-13T15:03:05;3.97;;;2.40;;
54557;SDS011;40452;50.080;20.040;2023-07-13T15:05:46;3.95;;;1.92;;
54557;SDS011;40452;50.080;20.040;2023-07-13T15:08:13;3.53;;;2.28;;
54557;SDS011;40452;50.080;20.040;2023-07-13T15:10:40;6.35;;;3.45;;
54557;SDS011;40452;50.080;20.040;2023-07-13T15:13:18;4.72;;;2.33;;
54557;SDS011;40452;50.080;20.040;2023-07-13T15:15:47;3.50;;;2.13;;
54557;SDS011;40452;50.080;20.040;2023-07-13T15:20:44;3.88;;;2.15;;
54557;SDS011;40452;50.080;20.040;2023-07-13T15:23:12;3.53;;;2.13;;
54557;SDS011;40452;50.080;20.040;2023-07-13T15:25:38;2.75;;;2.10;;
54557;SDS011;40452;50.080;20.040;2023-07-13T15:28:04;3.80;;;2.05;;
54557;SDS011;40452;50.080;20.040;2023-07-13T15:30:30;7.15;;;2.20;;
54557;SDS011;40452;50.080;20.040;2023-07-13T15:33:05;3.88;;;2.20;;
54557;SDS011;40452;50.080;20.040;2023-07-13T15:35:39;4.35;;;2.20;;
54557;SDS011;40452;50.080;20.040;2023-07-13T15:38:13;4.57;;;2.25;;
54557;SDS011;40452;50.080;20.040;2023-07-13T15:40:51;4.82;;;1.75;;
54557;SDS011;40452;50.080;20.040;2023-07-13T15:43:17;6.35;;;2.03;;
54557;SDS011;40452;50.080;20.040;2023-07-13T15:45:44;5.38;;;2.30;;
54557;SDS011;40452;50.080;20.040;2023-07-13T15:48:15;4.45;;;2.30;;
54557;SDS011;40452;50.080;20.040;2023-07-13T15:50:49;7.05;;;2.58;;
54557;SDS011;40452;50.080;20.040;2023-07-13T15:55:48;5.03;;;3.33;;
54557;SDS011;40452;50.080;20.040;2023-07-13T15:58:14;3.92;;;3.42;;
54557;SDS011;40452;50.080;20.040;2023-07-13T16:00:40;5.63;;;3.10;;
54557;SDS011;40452;50.080;20.040;2023-07-13T16:03:06;3.90;;;2.90;;
54557;SDS011;40452;50.080;20.040;2023-07-13T16:05:32;6.43;;;3.60;;
54557;SDS011;40452;50.080;20.040;2023-07-13T16:07:58;5.85;;;4.20;;
54557;SDS011;40452;50.080;20.040;2023-07-13T16:10:30;6.90;;;3.55;;
54557;SDS011;40452;50.080;20.040;2023-07-13T16:12:58;7.82;;;3.58;;
54557;SDS011;40452;50.080;20.040;2023-07-13T16:15:25;6.95;;;3.83;;
54557;SDS011;40452;50.080;20.040;2023-07-13T16:17:51;5.18;;;3.72;;
54557;SDS011;40452;50.080;20.040;2023-07-13T16:20:17;4.88;;;3.40;;
54557;SDS011;40452;50.080;20.040;2023-07-13T16:22:46;6.05;;;4.07;;
54557;SDS011;40452;50.080;20.040;2023-07-13T16:27:40;4.90;;;3.50;;
54557;SDS011;40452;50.080;20.040;2023-07-13T16:30:21;5.70;;;3.70;;
54557;SDS011;40452;50.080;20.040;2023-07-13T16:32:52;5.20;;;3.58;;
54557;SDS011;40452;50.080;20.040;2023-07-13T16:35:21;5.20;;;3.40;;
54557;SDS011;40452;50.080;20.040;2023-07-13T16:37:50;6.55;;;3.75;;
54557;SDS011;40452;50.080;20.040;2023-07-13T16:40:27;9.88;;;3.83;;
54557;SDS011;40452;50.080;20.040;2023-07-13T16:42:55;4.75;;;3.38;;
54557;SDS011;40452;50.080;20.040;2023-07-13T16:45:22;4.75;;;3.40;;
54557;SDS011;40452;50.080;20.040;2023-07-13T16:47:55;8.15;;;3.10;;
54557;SDS011;40452;50.080;20.040;2023-07-13T16:50:23;6.30;;;3.25;;
54557;SDS011;40452;50.080;20.040;2023-07-13T16:52:51;3.40;;;2.85;;
54557;SDS011;40452;50.080;20.040;2023-07-13T16:55:19;6.18;;;3.22;;
54557;SDS011;40452;50.080;20.040;2023-07-13T16:57:53;6.82;;;3.38;;
54557;SDS011;40452;50.080;20.040;2023-07-13T17:00:22;4.90;;;3.55;;
54557;SDS011;40452;50.080;20.040;2023-07-13T17:03:00;5.68;;;3.20;;
54557;SDS011;40452;50.080;20.040;2023-07-13T17:05:34;5.10;;;3.70;;
54557;SDS011;40452;50.080;20.040;2023-07-13T17:08:02;5.45;;;3.45;;
54557;SDS011;40452;50.080;20.040;2023-07-13T17:10:38;6.45;;;3.88;;
54557;SDS011;40452;50.080;20.040;2023-07-13T17:13:08;4.35;;;3.20;;
54557;SDS011;40452;50.080;20.040;2023-07-13T17:15:35;5.70;;;3.45;;
54557;SDS011;40452;50.080;20.040;2023-07-13T17:18:02;5.55;;;3.42;;
54557;SDS011;40452;50.080;20.040;2023-07-13T17:20:34;5.47;;;3.38;;
54557;SDS011;40452;50.080;20.040;2023-07-13T17:23:02;6.25;;;3.40;;
54557;SDS011;40452;50.080;20.040;2023-07-13T17:25:30;4.97;;;3.60;;
54557;SDS011;40452;50.080;20.040;2023-07-13T17:27:56;7.20;;;4.03;;
54557;SDS011;40452;50.080;20.040;2023-07-13T17:30:22;9.35;;;3.95;;
54557;SDS011;40452;50.080;20.040;2023-07-13T17:32:49;5.97;;;3.88;;
54557;SDS011;40452;50.080;20.040;2023-07-13T17:35:26;7.63;;;3.40;;
54557;SDS011;40452;50.080;20.040;2023-07-13T17:37:55;6.82;;;3.60;;
54557;SDS011;40452;50.080;20.040;2023-07-13T17:40:25;6.25;;;3.50;;
54557;SDS011;40452;50.080;20.040;2023-07-13T17:42:52;10.45;;;4.72;;
54557;SDS011;40452;50.080;20.040;2023-07-13T17:45:21;5.53;;;3.80;;
54557;SDS011;40452;50.080;20.040;2023-07-13T17:47:47;9.82;;;3.72;;
54557;SDS011;40452;50.080;20.040;2023-07-13T17:50:15;7.10;;;3.67;;
54557;SDS011;40452;50.080;20.040;2023-07-13T17:52:43;5.40;;;3.60;;
54557;SDS011;40452;50.080;20.040;2023-07-13T17:55:12;8.35;;;4.15;;
54557;SDS011;40452;50.080;20.040;2023-07-13T18:00:05;6.28;;;4.00;;
54557;SDS011;40452;50.080;20.040;2023-07-13T18:02:52;6.25;;;3.90;;
54557;SDS011;40452;50.080;20.040;2023-07-13T18:05:21;7.22;;;4.38;;
54557;SDS011;40452;50.080;20.040;2023-07-13T18:07:49;7.18;;;4.40;;
54557;SDS011;40452;50.080;20.040;2023-07-13T18:10:16;6.78;;;4.25;;
54557;SDS011;40452;50.080;20.040;2023-07-13T18:12:42;6.63;;;4.95;;
54557;SDS011;40452;50.080;20.040;2023-07-13T18:15:09;8.60;;;4.60;;
54557;SDS011;40452;50.080;20.040;2023-07-13T18:17:35;9.35;;;4.38;;
54557;SDS011;40452;50.080;20.040;2023-07-13T18:20:02;10.95;;;4.45;;
54557;SDS011;40452;50.080;20.040;2023-07-13T18:22:34;7.05;;;3.65;;
54557;SDS011;40452;50.080;20.040;2023-07-13T18:25:01;6.75;;;3.83;;
54557;SDS011;40452;50.080;20.040;2023-07-13T18:27:30;9.50;;;3.78;;
54557;SDS011;40452;50.080;20.040;2023-07-13T18:29:56;6.82;;;4.38;;
54557;SDS011;40452;50.080;20.040;2023-07-13T18:32:22;6.43;;;3.90;;
54557;SDS011;40452;50.080;20.040;2023-07-13T18:34:47;9.68;;;4.53;;
54557;SDS011;40452;50.080;20.040;2023-07-13T18:37:17;6.97;;;4.10;;
54557;SDS011;40452;50.080;20.040;2023-07-13T18:39:45;8.63;;;4.38;;
54557;SDS011;40452;50.080;20.040;2023-07-13T18:42:11;8.77;;;4.38;;
54557;SDS011;40452;50.080;20.040;2023-07-13T18:44:36;7.82;;;4.53;;
54557;SDS011;40452;50.080;20.040;2023-07-13T18:47:02;11.32;;;5.80;;
54557;SDS011;40452;50.080;20.040;2023-07-13T18:49:29;8.80;;;5.28;;
54557;SDS011;40452;50.080;20.040;2023-07-13T18:51:55;6.35;;;4.78;;
54557;SDS011;40452;50.080;20.040;2023-07-13T18:54:20;10.10;;;4.65;;
54557;SDS011;40452;50.080;20.040;2023-07-13T18:56:47;5.68;;;4.22;;
54557;SDS011;40452;50.080;20.040;2023-07-13T18:59:13;8.90;;;4.72;;
54557;SDS011;40452;50.080;20.040;2023-07-13T19:01:39;9.77;;;4.20;;
54557;SDS011;40452;50.080;20.040;2023-07-13T19:06:50;7.10;;;4.22;;
54557;SDS011;40452;50.080;20.040;2023-07-13T19:09:15;8.55;;;4.13;;
54557;SDS011;40452;50.080;20.040;2023-07-13T19:11:41;7.95;;;4.60;;
54557;SDS011;40452;50.080;20.040;2023-07-13T19:14:11;8.93;;;5.70;;
54557;SDS011;40452;50.080;20.040;2023-07-13T19:16:40;6.72;;;4.63;;
54557;SDS011;40452;50.080;20.040;2023-07-13T19:19:13;10.02;;;5.50;;
54557;SDS011;40452;50.080;20.040;2023-07-13T19:21:41;12.32;;;7.57;;
54557;SDS011;40452;50.080;20.040;2023-07-13T19:24:12;14.55;;;7.82;;
54557;SDS011;40452;50.080;20.040;2023-07-13T19:26:43;10.77;;;6.78;;
54557;SDS011;40452;50.080;20.040;2023-07-13T19:29:12;10.10;;;7.45;;
54557;SDS011;40452;50.080;20.040;2023-07-13T19:31:39;9.82;;;7.00;;
54557;SDS011;40452;50.080;20.040;2023-07-13T19:36:34;8.98;;;6.20;;
54557;SDS011;40452;50.080;20.040;2023-07-13T19:39:00;8.80;;;5.53;;
54557;SDS011;40452;50.080;20.040;2023-07-13T19:41:26;12.07;;;5.78;;
54557;SDS011;40452;50.080;20.040;2023-07-13T19:43:53;10.32;;;5.32;;
54557;SDS011;40452;50.080;20.040;2023-07-13T19:48:53;9.43;;;5.70;;
54557;SDS011;40452;50.080;20.040;2023-07-13T19:51:19;8.02;;;5.50;;
54557;SDS011;40452;50.080;20.040;2023-07-13T19:53:54;8.35;;;5.43;;
54557;SDS011;40452;50.080;20.040;2023-07-13T19:56:24;8.70;;;5.63;;
54557;SDS011;40452;50.080;20.040;2023-07-13T19:58:50;9.15;;;6.03;;
54557;SDS011;40452;50.080;20.040;2023-07-13T20:01:16;7.13;;;5.63;;
54557;SDS011;40452;50.080;20.040;2023-07-13T20:03:42;7.43;;;5.43;;
54557;SDS011;40452;50.080;20.040;2023-07-13T20:06:29;8.10;;;6.30;;
54557;SDS011;40452;50.080;20.040;2023-07-13T20:09:05;8.10;;;5.43;;
54557;SDS011;40452;50.080;20.040;2023-07-13T20:11:40;10.18;;;6.35;;
54557;SDS011;40452;50.080;20.040;2023-07-13T20:14:19;10.75;;;5.88;;
54557;SDS011;40452;50.080;20.040;2023-07-13T20:16:46;10.60;;;6.55;;
54557;SDS011;40452;50.080;20.040;2023-07-13T20:19:14;7.97;;;5.85;;
54557;SDS011;40452;50.080;20.040;2023-07-13T20:21:41;9.90;;;5.68;;
54557;SDS011;40452;50.080;20.040;2023-07-13T20:24:14;6.43;;;5.30;;
54557;SDS011;40452;50.080;20.040;2023-07-13T20:26:42;8.05;;;5.30;;
54557;SDS011;40452;50.080;20.040;2023-07-13T20:29:09;9.35;;;5.57;;
54557;SDS011;40452;50.080;20.040;2023-07-13T20:31:36;9.23;;;5.65;;
54557;SDS011;40452;50.080;20.040;2023-07-13T20:34:02;9.50;;;6.03;;
54557;SDS011;40452;50.080;20.040;2023-07-13T20:36:29;7.72;;;5.80;;
54557;SDS011;40452;50.080;20.040;2023-07-13T20:38:55;14.13;;;6.82;;
54557;SDS011;40452;50.080;20.040;2023-07-13T20:41:21;11.00;;;6.65;;
54557;SDS011;40452;50.080;20.040;2023-07-13T20:43:47;13.10;;;7.88;;
54557;SDS011;40452;50.080;20.040;2023-07-13T20:46:14;12.77;;;7.75;;
54557;SDS011;40452;50.080;20.040;2023-07-13T20:48:42;18.50;;;11.25;;
54557;SDS011;40452;50.080;20.040;2023-07-13T20:51:13;12.93;;;8.02;;
54557;SDS011;40452;50.080;20.040;2023-07-13T20:53:41;16.33;;;11.30;;
54557;SDS011;40452;50.080;20.040;2023-07-13T20:56:17;11.95;;;8.02;;
54557;SDS011;40452;50.080;20.040;2023-07-13T20:58:43;11.38;;;7.63;;
54557;SDS011;40452;50.080;20.040;2023-07-13T21:01:14;11.07;;;7.35;;
54557;SDS011;40452;50.080;20.040;2023-07-13T21:03:46;13.80;;;9.52;;
54557;SDS011;40452;50.080;20.040;2023-07-13T21:06:17;15.27;;;11.77;;
54557;SDS011;40452;50.080;20.040;2023-07-13T21:08:45;16.45;;;9.63;;
54557;SDS011;40452;50.080;20.040;2023-07-13T21:11:11;15.20;;;8.63;;
54557;SDS011;40452;50.080;20.040;2023-07-13T21:13:38;14.05;;;7.78;;
54557;SDS011;40452;50.080;20.040;2023-07-13T21:16:20;15.05;;;8.88;;
54557;SDS011;40452;50.080;20.040;2023-07-13T21:18:48;12.18;;;8.50;;
54557;SDS011;40452;50.080;20.040;2023-07-13T21:21:15;9.93;;;7.60;;
54557;SDS011;40452;50.080;20.040;2023-07-13T21:23:43;13.23;;;7.63;;
54557;SDS011;40452;50.080;20.040;2023-07-13T21:26:09;11.65;;;7.50;;
54557;SDS011;40452;50.080;20.040;2023-07-13T21:28:36;12.15;;;7.30;;
54557;SDS011;40452;50.080;20.040;2023-07-13T21:31:04;11.95;;;7.50;;
54557;SDS011;40452;50.080;20.040;2023-07-13T21:33:33;11.85;;;7.07;;
54557;SDS011;40452;50.080;20.040;2023-07-13T21:36:01;12.23;;;9.27;;
54557;SDS011;40452;50.080;20.040;2023-07-13T21:40:59;9.80;;;7.20;;
54557;SDS011;40452;50.080;20.040;2023-07-13T21:43:26;9.60;;;7.20;;
54557;SDS011;40452;50.080;20.040;2023-07-13T21:45:52;10.50;;;6.97;;
54557;SDS011;40452;50.080;20.040;2023-07-13T21:48:18;11.75;;;7.78;;
54557;SDS011;40452;50.080;20.040;2023-07-13T21:50:45;13.02;;;7.70;;
54557;SDS011;40452;50.080;20.040;2023-07-13T21:53:19;9.88;;;7.20;;
54557;SDS011;40452;50.080;20.040;2023-07-13T21:55:46;10.23;;;7.00;;
54557;SDS011;40452;50.080;20.040;2023-07-13T22:00:41;13.65;;;9.15;;
54557;SDS011;40452;50.080;20.040;2023-07-13T22:03:24;9.63;;;7.18;;
54557;SDS011;40452;50.080;20.040;2023-07-13T22:05:50;10.70;;;7.90;;
54557;SDS011;40452;50.080;20.040;2023-07-13T22:08:18;11.45;;;7.15;;
54557;SDS011;40452;50.080;20.040;2023-07-13T22:10:45;9.85;;;6.80;;
54557;SDS011;40452;50.080;20.040;2023-07-13T22:13:11;10.35;;;6.60;;
54557;SDS011;40452;50.080;20.040;2023-07-13T22:15:37;8.70;;;6.38;;
54557;SDS011;40452;50.080;20.040;2023-07-13T22:18:05;9.93;;;6.35;;
54557;SDS011;40452;50.080;20.040;2023-07-13T22:20:39;16.48;;;6.70;;
54557;SDS011;40452;50.080;20.040;2023-07-13T22:23:15;10.75;;;5.50;;
54557;SDS011;40452;50.080;20.040;2023-07-13T22:25:45;8.18;;;6.18;;
54557;SDS011;40452;50.080;20.040;2023-07-13T22:28:13;10.85;;;5.93;;
54557;SDS011;40452;50.080;20.040;2023-07-13T22:30:40;11.80;;;6.28;;
54557;SDS011;40452;50.080;20.040;2023-07-13T22:33:17;7.05;;;5.53;;
54557;SDS011;40452;50.080;20.040;2023-07-13T22:35:45;8.45;;;5.18;;
54557;SDS011;40452;50.080;20.040;2023-07-13T22:38:15;7.20;;;5.40;;
54557;SDS011;40452;50.080;20.040;2023-07-13T22:40:43;10.93;;;5.38;;
54557;SDS011;40452;50.080;20.040;2023-07-13T22:43:19;11.07;;;6.07;;
54557;SDS011;40452;50.080;20.040;2023-07-13T22:45:49;7.50;;;4.53;;
54557;SDS011;40452;50.080;20.040;2023-07-13T22:48:36;9.07;;;5.25;;
54557;SDS011;40452;50.080;20.040;2023-07-13T22:51:13;6.78;;;4.82;;
54557;SDS011;40452;50.080;20.040;2023-07-13T22:53:40;8.57;;;4.57;;
54557;SDS011;40452;50.080;20.040;2023-07-13T22:56:06;10.82;;;5.07;;
54557;SDS011;40452;50.080;20.040;2023-07-13T22:58:32;6.60;;;4.53;;
54557;SDS011;40452;50.080;20.040;2023-07-13T23:00:58;8.43;;;4.43;;
54557;SDS011;40452;50.080;20.040;2023-07-13T23:03:26;8.27;;;4.93;;
54557;SDS011;40452;50.080;20.040;2023-07-13T23:05:55;7.93;;;4.43;;
54557;SDS011;40452;50.080;20.040;2023-07-13T23:08:25;6.32;;;4.50;;
54557;SDS011;40452;50.080;20.040;2023-07-13T23:10:52;6.75;;;4.32;;
54557;SDS011;40452;50.080;20.040;2023-07-13T23:13:26;8.80;;;4.72;;
54557;SDS011;40452;50.080;20.040;2023-07-13T23:15:52;9.60;;;4.75;;
54557;SDS011;40452;50.080;20.040;2023-07-13T23:18:18;7.53;;;4.70;;
54557;SDS011;40452;50.080;20.040;2023-07-13T23:20:43;8.80;;;4.82;;
54557;SDS011;40452;50.080;20.040;2023-07-13T23:23:11;6.40;;;4.45;;
54557;SDS011;40452;50.080;20.040;2023-07-13T23:25:38;7.75;;;4.63;;
54557;SDS011;40452;50.080;20.040;2023-07-13T23:28:03;7.25;;;4.40;;
54557;SDS011;40452;50.080;20.040;2023-07-13T23:30:29;5.95;;;4.45;;
54557;SDS011;40452;50.080;20.040;2023-07-13T23:33:00;12.40;;;4.60;;
54557;SDS011;40452;50.080;20.040;2023-07-13T23:35:30;6.60;;;4.28;;
54557;SDS011;40452;50.080;20.040;2023-07-13T23:37:57;7.82;;;3.92;;
54557;SDS011;40452;50.080;20.040;2023-07-13T23:40:25;8.57;;;4.70;;
54557;SDS011;40452;50.080;20.040;2023-07-13T23:42:52;7.38;;;4.80;;
54557;SDS011;40452;50.080;20.040;2023-07-13T23:47:47;6.68;;;4.57;;
54557;SDS011;40452;50.080;20.040;2023-07-13T23:50:17;6.00;;;4.65;;
54557;SDS011;40452;50.080;20.040;2023-07-13T23:52:44;8.02;;;4.68;;
54557;SDS011;40452;50.080;20.040;2023-07-13T23:55:12;9.00;;;4.60;;
54557;SDS011;40452;50.080;20.040;2023-07-13T23:57:42;6.15;;;4.45;;
